sensor_id;sensor_type;location;lat;lon;timestamp;P1;durP1;ratioP1;P2;durP2;ratioP2
82399;SDS011;72039;48.812;8.198;2023-09-18T00:01:55;6.03;;;3.20;;
82399;SDS011;72039;48.812;8.198;2023-09-18T00:04:20;5.32;;;3.20;;
82399;SDS011;72039;48.812;8.198;2023-09-18T00:06:46;6.88;;;3.25;;
82399;SDS011;72039;48.812;8.198;2023-09-18T00:09:11;5.00;;;3.20;;
82399;SDS011;72039;48.812;8.198;2023-09-18T00:11:38;5.43;;;3.13;;
82399;SDS011;72039;48.812;8.198;2023-09-18T00:14:07;9.20;;;2.90;;
82399;SDS011;72039;48.812;8.198;2023-09-18T00:16:32;7.35;;;3.05;;
82399;SDS011;72039;48.812;8.198;2023-09-18T00:18:58;5.75;;;3.13;;
82399;SDS011;72039;48.812;8.198;2023-09-18T00:21:24;4.78;;;3.10;;
82399;SDS011;72039;48.812;8.198;2023-09-18T00:23:56;8.35;;;3.15;;
82399;SDS011;72039;48.812;8.198;2023-09-18T00:26:23;6.47;;;3.03;;
82399;SDS011;72039;48.812;8.198;2023-09-18T00:28:48;6.68;;;2.90;;
82399;SDS011;72039;48.812;8.198;2023-09-18T00:31:15;6.00;;;3.40;;
82399;SDS011;72039;48.812;8.198;2023-09-18T00:33:40;7.57;;;3.67;;
82399;SDS011;72039;48.812;8.198;2023-09-18T00:36:06;8.85;;;3.58;;
82399;SDS011;72039;48.812;8.198;2023-09-18T00:38:31;8.85;;;4.53;;
82399;SDS011;72039;48.812;8.198;2023-09-18T00:40:57;7.70;;;3.60;;
82399;SDS011;72039;48.812;8.198;2023-09-18T00:43:22;8.95;;;4.15;;
82399;SDS011;72039;48.812;8.198;2023-09-18T00:45:48;7.18;;;3.90;;
82399;SDS011;72039;48.812;8.198;2023-09-18T00:48:14;7.22;;;4.45;;
82399;SDS011;72039;48.812;8.198;2023-09-18T00:50:40;9.30;;;3.88;;
82399;SDS011;72039;48.812;8.198;2023-09-18T00:53:07;7.85;;;4.60;;
82399;SDS011;72039;48.812;8.198;2023-09-18T00:55:36;10.05;;;4.40;;
82399;SDS011;72039;48.812;8.198;2023-09-18T00:58:06;12.13;;;4.40;;
82399;SDS011;72039;48.812;8.198;2023-09-18T01:00:32;10.23;;;4.13;;
82399;SDS011;72039;48.812;8.198;2023-09-18T01:02:58;9.82;;;4.57;;
82399;SDS011;72039;48.812;8.198;2023-09-18T01:05:23;7.57;;;3.78;;
82399;SDS011;72039;48.812;8.198;2023-09-18T01:07:49;9.85;;;3.88;;
82399;SDS011;72039;48.812;8.198;2023-09-18T01:10:15;10.45;;;3.80;;
82399;SDS011;72039;48.812;8.198;2023-09-18T01:15:26;8.40;;;3.70;;
82399;SDS011;72039;48.812;8.198;2023-09-18T01:17:57;6.68;;;3.42;;
82399;SDS011;72039;48.812;8.198;2023-09-18T01:20:23;7.43;;;3.17;;
82399;SDS011;72039;48.812;8.198;2023-09-18T01:22:49;6.85;;;2.95;;
82399;SDS011;72039;48.812;8.198;2023-09-18T01:25:15;7.45;;;3.38;;
82399;SDS011;72039;48.812;8.198;2023-09-18T01:27:41;5.82;;;3.53;;
82399;SDS011;72039;48.812;8.198;2023-09-18T01:30:08;8.70;;;3.83;;
82399;SDS011;72039;48.812;8.198;2023-09-18T01:32:34;7.78;;;3.25;;
82399;SDS011;72039;48.812;8.198;2023-09-18T01:35:03;7.45;;;3.60;;
82399;SDS011;72039;48.812;8.198;2023-09-18T01:37:34;9.63;;;3.20;;
82399;SDS011;72039;48.812;8.198;2023-09-18T01:40:03;8.75;;;2.60;;
82399;SDS011;72039;48.812;8.198;2023-09-18T01:42:32;10.68;;;2.88;;
82399;SDS011;72039;48.812;8.198;2023-09-18T01:44:58;7.40;;;3.33;;
82399;SDS011;72039;48.812;8.198;2023-09-18T01:47:23;6.88;;;2.92;;
82399;SDS011;72039;48.812;8.198;2023-09-18T01:49:49;9.23;;;3.40;;
82399;SDS011;72039;48.812;8.198;2023-09-18T01:52:15;6.13;;;3.00;;
82399;SDS011;72039;48.812;8.198;2023-09-18T01:54:40;7.63;;;3.28;;
82399;SDS011;72039;48.812;8.198;2023-09-18T01:57:06;6.85;;;2.80;;
82399;SDS011;72039;48.812;8.198;2023-09-18T01:59:35;4.53;;;2.88;;
82399;SDS011;72039;48.812;8.198;2023-09-18T02:02:00;9.50;;;3.30;;
82399;SDS011;72039;48.812;8.198;2023-09-18T02:04:29;8.35;;;3.08;;
82399;SDS011;72039;48.812;8.198;2023-09-18T02:06:55;8.48;;;3.20;;
82399;SDS011;72039;48.812;8.198;2023-09-18T02:09:23;6.32;;;3.22;;
82399;SDS011;72039;48.812;8.198;2023-09-18T02:11:51;8.55;;;3.55;;
82399;SDS011;72039;48.812;8.198;2023-09-18T02:14:19;5.10;;;3.10;;
82399;SDS011;72039;48.812;8.198;2023-09-18T02:16:44;7.60;;;2.80;;
82399;SDS011;72039;48.812;8.198;2023-09-18T02:19:10;5.55;;;3.08;;
82399;SDS011;72039;48.812;8.198;2023-09-18T02:21:37;8.90;;;3.08;;
82399;SDS011;72039;48.812;8.198;2023-09-18T02:24:03;7.28;;;2.85;;
82399;SDS011;72039;48.812;8.198;2023-09-18T02:26:29;5.90;;;3.15;;
82399;SDS011;72039;48.812;8.198;2023-09-18T02:29:03;6.68;;;3.10;;
82399;SDS011;72039;48.812;8.198;2023-09-18T02:31:31;12.05;;;3.65;;
82399;SDS011;72039;48.812;8.198;2023-09-18T02:33:56;9.18;;;3.17;;
82399;SDS011;72039;48.812;8.198;2023-09-18T02:36:22;5.40;;;3.45;;
82399;SDS011;72039;48.812;8.198;2023-09-18T02:39:13;7.80;;;3.30;;
82399;SDS011;72039;48.812;8.198;2023-09-18T02:41:39;5.97;;;3.13;;
82399;SDS011;72039;48.812;8.198;2023-09-18T02:44:06;4.80;;;2.97;;
82399;SDS011;72039;48.812;8.198;2023-09-18T02:46:32;6.63;;;2.90;;
82399;SDS011;72039;48.812;8.198;2023-09-18T02:48:58;8.38;;;3.15;;
82399;SDS011;72039;48.812;8.198;2023-09-18T02:51:23;7.15;;;3.22;;
82399;SDS011;72039;48.812;8.198;2023-09-18T02:53:50;8.13;;;3.42;;
82399;SDS011;72039;48.812;8.198;2023-09-18T02:56:15;10.13;;;3.30;;
82399;SDS011;72039;48.812;8.198;2023-09-18T02:58:41;9.23;;;3.42;;
82399;SDS011;72039;48.812;8.198;2023-09-18T03:01:06;7.40;;;3.28;;
82399;SDS011;72039;48.812;8.198;2023-09-18T03:03:33;6.40;;;3.45;;
82399;SDS011;72039;48.812;8.198;2023-09-18T03:06:03;5.03;;;3.05;;
82399;SDS011;72039;48.812;8.198;2023-09-18T03:08:30;7.90;;;3.50;;
82399;SDS011;72039;48.812;8.198;2023-09-18T03:10:55;8.10;;;3.53;;
82399;SDS011;72039;48.812;8.198;2023-09-18T03:13:22;6.97;;;3.40;;
82399;SDS011;72039;48.812;8.198;2023-09-18T03:15:47;6.28;;;3.22;;
82399;SDS011;72039;48.812;8.198;2023-09-18T03:18:13;7.18;;;3.05;;
82399;SDS011;72039;48.812;8.198;2023-09-18T03:20:41;3.92;;;3.20;;
82399;SDS011;72039;48.812;8.198;2023-09-18T03:23:06;7.63;;;3.40;;
82399;SDS011;72039;48.812;8.198;2023-09-18T03:25:35;8.13;;;3.30;;
82399;SDS011;72039;48.812;8.198;2023-09-18T03:28:02;7.72;;;3.50;;
82399;SDS011;72039;48.812;8.198;2023-09-18T03:30:28;13.68;;;3.80;;
82399;SDS011;72039;48.812;8.198;2023-09-18T03:32:54;8.82;;;4.30;;
82399;SDS011;72039;48.812;8.198;2023-09-18T03:35:20;10.80;;;4.15;;
82399;SDS011;72039;48.812;8.198;2023-09-18T03:37:47;10.40;;;3.72;;
82399;SDS011;72039;48.812;8.198;2023-09-18T03:40:14;9.73;;;3.75;;
82399;SDS011;72039;48.812;8.198;2023-09-18T03:42:39;11.45;;;4.10;;
82399;SDS011;72039;48.812;8.198;2023-09-18T03:45:06;11.25;;;4.10;;
82399;SDS011;72039;48.812;8.198;2023-09-18T03:47:34;14.77;;;4.20;;
82399;SDS011;72039;48.812;8.198;2023-09-18T03:50:01;13.93;;;3.92;;
82399;SDS011;72039;48.812;8.198;2023-09-18T03:52:27;13.93;;;4.32;;
82399;SDS011;72039;48.812;8.198;2023-09-18T03:54:52;13.80;;;4.03;;
82399;SDS011;72039;48.812;8.198;2023-09-18T03:57:18;14.48;;;4.28;;
82399;SDS011;72039;48.812;8.198;2023-09-18T03:59:43;12.73;;;4.03;;
82399;SDS011;72039;48.812;8.198;2023-09-18T04:02:11;11.43;;;3.65;;
82399;SDS011;72039;48.812;8.198;2023-09-18T04:04:43;10.57;;;3.67;;
82399;SDS011;72039;48.812;8.198;2023-09-18T04:07:09;10.68;;;3.47;;
82399;SDS011;72039;48.812;8.198;2023-09-18T04:09:35;12.40;;;3.85;;
82399;SDS011;72039;48.812;8.198;2023-09-18T04:12:01;11.38;;;3.40;;
82399;SDS011;72039;48.812;8.198;2023-09-18T04:14:35;10.00;;;3.00;;
82399;SDS011;72039;48.812;8.198;2023-09-18T04:17:02;30.65;;;4.10;;
82399;SDS011;72039;48.812;8.198;2023-09-18T04:19:28;13.20;;;3.13;;
82399;SDS011;72039;48.812;8.198;2023-09-18T04:21:54;15.60;;;3.70;;
82399;SDS011;72039;48.812;8.198;2023-09-18T04:24:19;10.25;;;3.20;;
82399;SDS011;72039;48.812;8.198;2023-09-18T04:26:45;10.50;;;3.85;;
82399;SDS011;72039;48.812;8.198;2023-09-18T04:29:11;11.73;;;2.70;;
82399;SDS011;72039;48.812;8.198;2023-09-18T04:31:37;6.63;;;3.03;;
82399;SDS011;72039;48.812;8.198;2023-09-18T04:34:06;12.95;;;2.88;;
82399;SDS011;72039;48.812;8.198;2023-09-18T04:36:33;10.85;;;3.05;;
82399;SDS011;72039;48.812;8.198;2023-09-18T04:38:58;13.23;;;3.22;;
82399;SDS011;72039;48.812;8.198;2023-09-18T04:41:28;10.00;;;2.90;;
82399;SDS011;72039;48.812;8.198;2023-09-18T04:43:55;9.63;;;3.17;;
82399;SDS011;72039;48.812;8.198;2023-09-18T04:46:22;12.00;;;2.80;;
82399;SDS011;72039;48.812;8.198;2023-09-18T04:48:49;10.82;;;2.88;;
82399;SDS011;72039;48.812;8.198;2023-09-18T04:51:17;15.00;;;3.10;;
82399;SDS011;72039;48.812;8.198;2023-09-18T04:53:42;11.45;;;2.95;;
82399;SDS011;72039;48.812;8.198;2023-09-18T04:56:11;10.80;;;2.83;;
82399;SDS011;72039;48.812;8.198;2023-09-18T04:58:39;11.13;;;3.00;;
82399;SDS011;72039;48.812;8.198;2023-09-18T05:01:10;10.40;;;2.85;;
82399;SDS011;72039;48.812;8.198;2023-09-18T05:03:36;11.15;;;2.97;;
82399;SDS011;72039;48.812;8.198;2023-09-18T05:06:02;10.93;;;2.90;;
82399;SDS011;72039;48.812;8.198;2023-09-18T05:08:30;9.23;;;2.72;;
82399;SDS011;72039;48.812;8.198;2023-09-18T05:10:56;10.32;;;2.95;;
82399;SDS011;72039;48.812;8.198;2023-09-18T05:13:24;10.10;;;3.22;;
82399;SDS011;72039;48.812;8.198;2023-09-18T05:15:57;11.32;;;3.20;;
82399;SDS011;72039;48.812;8.198;2023-09-18T05:18:23;11.45;;;3.10;;
82399;SDS011;72039;48.812;8.198;2023-09-18T05:20:50;14.88;;;3.30;;
82399;SDS011;72039;48.812;8.198;2023-09-18T05:23:16;14.50;;;3.35;;
82399;SDS011;72039;48.812;8.198;2023-09-18T05:25:42;16.20;;;4.15;;
82399;SDS011;72039;48.812;8.198;2023-09-18T05:28:09;9.57;;;3.15;;
82399;SDS011;72039;48.812;8.198;2023-09-18T05:30:35;8.95;;;3.63;;
82399;SDS011;72039;48.812;8.198;2023-09-18T05:33:03;9.77;;;3.35;;
82399;SDS011;72039;48.812;8.198;2023-09-18T05:35:31;12.95;;;4.05;;
82399;SDS011;72039;48.812;8.198;2023-09-18T05:37:58;10.48;;;3.90;;
82399;SDS011;72039;48.812;8.198;2023-09-18T05:40:26;12.38;;;4.00;;
82399;SDS011;72039;48.812;8.198;2023-09-18T05:42:55;12.93;;;4.60;;
82399;SDS011;72039;48.812;8.198;2023-09-18T05:45:21;10.43;;;3.88;;
82399;SDS011;72039;48.812;8.198;2023-09-18T05:47:47;11.38;;;3.75;;
82399;SDS011;72039;48.812;8.198;2023-09-18T05:50:14;9.05;;;3.05;;
82399;SDS011;72039;48.812;8.198;2023-09-18T05:52:41;13.05;;;3.78;;
82399;SDS011;72039;48.812;8.198;2023-09-18T05:57:40;10.07;;;4.00;;
82399;SDS011;72039;48.812;8.198;2023-09-18T06:00:06;11.13;;;3.30;;
82399;SDS011;72039;48.812;8.198;2023-09-18T06:02:33;7.75;;;3.10;;
82399;SDS011;72039;48.812;8.198;2023-09-18T06:04:59;10.57;;;3.67;;
82399;SDS011;72039;48.812;8.198;2023-09-18T06:07:28;8.65;;;3.22;;
82399;SDS011;72039;48.812;8.198;2023-09-18T06:09:55;8.88;;;3.70;;
82399;SDS011;72039;48.812;8.198;2023-09-18T06:12:21;8.05;;;3.28;;
82399;SDS011;72039;48.812;8.198;2023-09-18T06:14:47;10.00;;;3.15;;
82399;SDS011;72039;48.812;8.198;2023-09-18T06:17:13;9.63;;;3.47;;
82399;SDS011;72039;48.812;8.198;2023-09-18T06:19:40;9.95;;;3.15;;
82399;SDS011;72039;48.812;8.198;2023-09-18T06:22:09;10.63;;;3.50;;
82399;SDS011;72039;48.812;8.198;2023-09-18T06:24:35;9.88;;;3.55;;
82399;SDS011;72039;48.812;8.198;2023-09-18T06:27:01;8.35;;;3.03;;
82399;SDS011;72039;48.812;8.198;2023-09-18T06:29:34;8.45;;;2.92;;
82399;SDS011;72039;48.812;8.198;2023-09-18T06:32:03;9.15;;;2.92;;
82399;SDS011;72039;48.812;8.198;2023-09-18T06:34:28;4.72;;;2.80;;
82399;SDS011;72039;48.812;8.198;2023-09-18T06:36:54;8.02;;;2.90;;
82399;SDS011;72039;48.812;8.198;2023-09-18T06:39:19;6.78;;;2.35;;
82399;SDS011;72039;48.812;8.198;2023-09-18T06:41:47;9.45;;;2.33;;
82399;SDS011;72039;48.812;8.198;2023-09-18T06:44:13;6.35;;;1.95;;
82399;SDS011;72039;48.812;8.198;2023-09-18T06:46:39;7.82;;;2.10;;
82399;SDS011;72039;48.812;8.198;2023-09-18T06:49:06;6.13;;;2.00;;
82399;SDS011;72039;48.812;8.198;2023-09-18T06:51:31;5.18;;;1.52;;
82399;SDS011;72039;48.812;8.198;2023-09-18T06:53:57;3.35;;;1.70;;
82399;SDS011;72039;48.812;8.198;2023-09-18T06:56:25;7.05;;;1.52;;
82399;SDS011;72039;48.812;8.198;2023-09-18T06:58:51;4.25;;;1.52;;
82399;SDS011;72039;48.812;8.198;2023-09-18T07:01:20;3.30;;;1.10;;
82399;SDS011;72039;48.812;8.198;2023-09-18T07:03:49;5.00;;;1.00;;
82399;SDS011;72039;48.812;8.198;2023-09-18T07:06:16;3.17;;;1.00;;
82399;SDS011;72039;48.812;8.198;2023-09-18T07:08:45;3.85;;;1.20;;
82399;SDS011;72039;48.812;8.198;2023-09-18T07:11:18;2.53;;;1.10;;
82399;SDS011;72039;48.812;8.198;2023-09-18T07:13:46;4.00;;;1.25;;
82399;SDS011;72039;48.812;8.198;2023-09-18T07:16:11;4.38;;;0.80;;
82399;SDS011;72039;48.812;8.198;2023-09-18T07:18:37;5.15;;;1.00;;
82399;SDS011;72039;48.812;8.198;2023-09-18T07:21:05;1.55;;;0.60;;
82399;SDS011;72039;48.812;8.198;2023-09-18T07:23:39;4.03;;;1.10;;
82399;SDS011;72039;48.812;8.198;2023-09-18T07:26:05;4.78;;;0.90;;
82399;SDS011;72039;48.812;8.198;2023-09-18T07:28:31;1.23;;;0.70;;
82399;SDS011;72039;48.812;8.198;2023-09-18T07:30:57;2.92;;;0.95;;
82399;SDS011;72039;48.812;8.198;2023-09-18T07:33:22;2.92;;;1.52;;
82399;SDS011;72039;48.812;8.198;2023-09-18T07:35:48;1.38;;;0.70;;
82399;SDS011;72039;48.812;8.198;2023-09-18T07:38:17;3.55;;;1.05;;
82399;SDS011;72039;48.812;8.198;2023-09-18T07:40:44;4.03;;;1.00;;
82399;SDS011;72039;48.812;8.198;2023-09-18T07:43:11;2.47;;;0.98;;
82399;SDS011;72039;48.812;8.198;2023-09-18T07:45:38;3.72;;;0.85;;
82399;SDS011;72039;48.812;8.198;2023-09-18T07:48:07;3.13;;;0.82;;
82399;SDS011;72039;48.812;8.198;2023-09-18T07:50:34;3.33;;;0.70;;
82399;SDS011;72039;48.812;8.198;2023-09-18T07:53:00;1.42;;;0.70;;
82399;SDS011;72039;48.812;8.198;2023-09-18T07:55:28;3.47;;;0.95;;
82399;SDS011;72039;48.812;8.198;2023-09-18T07:57:55;3.80;;;1.10;;
82399;SDS011;72039;48.812;8.198;2023-09-18T08:00:20;5.63;;;1.30;;
82399;SDS011;72039;48.812;8.198;2023-09-18T08:02:48;4.05;;;1.00;;
82399;SDS011;72039;48.812;8.198;2023-09-18T08:05:15;5.05;;;1.23;;
82399;SDS011;72039;48.812;8.198;2023-09-18T08:07:44;3.90;;;1.05;;
82399;SDS011;72039;48.812;8.198;2023-09-18T08:10:09;3.28;;;0.98;;
82399;SDS011;72039;48.812;8.198;2023-09-18T08:12:35;3.60;;;1.13;;
82399;SDS011;72039;48.812;8.198;2023-09-18T08:15:01;5.80;;;1.10;;
82399;SDS011;72039;48.812;8.198;2023-09-18T08:17:28;3.10;;;1.02;;
82399;SDS011;72039;48.812;8.198;2023-09-18T08:19:54;3.85;;;1.10;;
82399;SDS011;72039;48.812;8.198;2023-09-18T08:22:22;2.75;;;1.10;;
82399;SDS011;72039;48.812;8.198;2023-09-18T08:24:52;7.95;;;1.20;;
82399;SDS011;72039;48.812;8.198;2023-09-18T08:27:19;3.60;;;1.17;;
82399;SDS011;72039;48.812;8.198;2023-09-18T08:29:45;4.90;;;1.30;;
82399;SDS011;72039;48.812;8.198;2023-09-18T08:32:12;3.97;;;1.00;;
82399;SDS011;72039;48.812;8.198;2023-09-18T08:34:37;2.33;;;1.05;;
82399;SDS011;72039;48.812;8.198;2023-09-18T08:37:03;4.03;;;1.23;;
82399;SDS011;72039;48.812;8.198;2023-09-18T08:39:29;3.78;;;1.02;;
82399;SDS011;72039;48.812;8.198;2023-09-18T08:41:58;5.68;;;1.30;;
82399;SDS011;72039;48.812;8.198;2023-09-18T08:44:29;4.60;;;1.20;;
82399;SDS011;72039;48.812;8.198;2023-09-18T08:46:55;3.08;;;1.13;;
82399;SDS011;72039;48.812;8.198;2023-09-18T08:49:22;5.72;;;1.20;;
82399;SDS011;72039;48.812;8.198;2023-09-18T08:51:49;2.83;;;1.30;;
82399;SDS011;72039;48.812;8.198;2023-09-18T08:54:16;6.20;;;0.93;;
82399;SDS011;72039;48.812;8.198;2023-09-18T08:56:42;5.18;;;1.17;;
82399;SDS011;72039;48.812;8.198;2023-09-18T08:59:10;5.00;;;1.52;;
82399;SDS011;72039;48.812;8.198;2023-09-18T09:01:37;2.25;;;0.90;;
82399;SDS011;72039;48.812;8.198;2023-09-18T09:04:02;2.58;;;1.08;;
82399;SDS011;72039;48.812;8.198;2023-09-18T09:06:29;2.80;;;0.90;;
82399;SDS011;72039;48.812;8.198;2023-09-18T09:08:54;4.10;;;1.00;;
82399;SDS011;72039;48.812;8.198;2023-09-18T09:11:25;4.47;;;1.13;;
82399;SDS011;72039;48.812;8.198;2023-09-18T09:14:13;5.32;;;0.80;;
82399;SDS011;72039;48.812;8.198;2023-09-18T09:16:50;3.67;;;0.90;;
82399;SDS011;72039;48.812;8.198;2023-09-18T09:19:17;2.78;;;1.10;;
82399;SDS011;72039;48.812;8.198;2023-09-18T09:21:43;3.08;;;1.00;;
82399;SDS011;72039;48.812;8.198;2023-09-18T09:24:12;2.78;;;1.13;;
82399;SDS011;72039;48.812;8.198;2023-09-18T09:26:39;4.07;;;1.40;;
82399;SDS011;72039;48.812;8.198;2023-09-18T09:29:15;5.65;;;1.20;;
82399;SDS011;72039;48.812;8.198;2023-09-18T09:31:45;2.30;;;1.02;;
82399;SDS011;72039;48.812;8.198;2023-09-18T09:34:11;4.03;;;1.10;;
82399;SDS011;72039;48.812;8.198;2023-09-18T09:36:53;3.40;;;1.20;;
82399;SDS011;72039;48.812;8.198;2023-09-18T09:39:19;4.05;;;1.10;;
82399;SDS011;72039;48.812;8.198;2023-09-18T09:41:47;2.78;;;1.10;;
82399;SDS011;72039;48.812;8.198;2023-09-18T09:44:13;3.00;;;1.15;;
82399;SDS011;72039;48.812;8.198;2023-09-18T09:46:48;3.90;;;0.98;;
82399;SDS011;72039;48.812;8.198;2023-09-18T09:49:14;2.67;;;0.88;;
82399;SDS011;72039;48.812;8.198;2023-09-18T09:51:43;2.20;;;1.00;;
82399;SDS011;72039;48.812;8.198;2023-09-18T09:54:08;2.65;;;1.13;;
82399;SDS011;72039;48.812;8.198;2023-09-18T09:56:44;3.70;;;1.20;;
82399;SDS011;72039;48.812;8.198;2023-09-18T09:59:12;2.58;;;1.00;;
82399;SDS011;72039;48.812;8.198;2023-09-18T10:01:41;2.67;;;1.00;;
82399;SDS011;72039;48.812;8.198;2023-09-18T10:04:13;2.95;;;1.00;;
82399;SDS011;72039;48.812;8.198;2023-09-18T10:06:51;3.25;;;0.75;;
82399;SDS011;72039;48.812;8.198;2023-09-18T10:09:19;2.50;;;1.00;;
82399;SDS011;72039;48.812;8.198;2023-09-18T10:11:48;4.25;;;0.93;;
82399;SDS011;72039;48.812;8.198;2023-09-18T10:14:20;1.95;;;0.80;;
82399;SDS011;72039;48.812;8.198;2023-09-18T10:16:54;3.05;;;1.10;;
82399;SDS011;72039;48.812;8.198;2023-09-18T10:19:27;2.30;;;0.82;;
82399;SDS011;72039;48.812;8.198;2023-09-18T10:24:45;3.35;;;0.95;;
82399;SDS011;72039;48.812;8.198;2023-09-18T10:27:13;1.40;;;0.80;;
82399;SDS011;72039;48.812;8.198;2023-09-18T10:29:40;4.18;;;0.80;;
82399;SDS011;72039;48.812;8.198;2023-09-18T10:32:15;1.92;;;0.77;;
82399;SDS011;72039;48.812;8.198;2023-09-18T10:34:43;2.00;;;0.80;;
82399;SDS011;72039;48.812;8.198;2023-09-18T10:37:12;2.88;;;0.80;;
82399;SDS011;72039;48.812;8.198;2023-09-18T10:39:39;1.75;;;0.70;;
82399;SDS011;72039;48.812;8.198;2023-09-18T10:42:12;2.50;;;0.70;;
82399;SDS011;72039;48.812;8.198;2023-09-18T10:44:46;2.55;;;1.00;;
82399;SDS011;72039;48.812;8.198;2023-09-18T10:47:16;3.08;;;0.60;;
82399;SDS011;72039;48.812;8.198;2023-09-18T10:49:43;2.53;;;1.05;;
82399;SDS011;72039;48.812;8.198;2023-09-18T10:52:12;3.88;;;0.90;;
82399;SDS011;72039;48.812;8.198;2023-09-18T10:54:40;1.98;;;0.80;;
82399;SDS011;72039;48.812;8.198;2023-09-18T10:57:07;2.17;;;0.82;;
82399;SDS011;72039;48.812;8.198;2023-09-18T10:59:33;2.88;;;0.82;;
82399;SDS011;72039;48.812;8.198;2023-09-18T11:02:02;4.18;;;0.80;;
82399;SDS011;72039;48.812;8.198;2023-09-18T11:04:32;1.27;;;0.70;;
82399;SDS011;72039;48.812;8.198;2023-09-18T11:07:32;1.80;;;0.73;;
82399;SDS011;72039;48.812;8.198;2023-09-18T11:09:51;2.67;;;0.82;;
82399;SDS011;72039;48.812;8.198;2023-09-18T11:12:19;1.75;;;0.90;;
82399;SDS011;72039;48.812;8.198;2023-09-18T11:14:45;1.73;;;0.75;;
82399;SDS011;72039;48.812;8.198;2023-09-18T11:20:05;4.38;;;1.10;;
82399;SDS011;72039;48.812;8.198;2023-09-18T11:22:55;1.23;;;0.82;;
82399;SDS011;72039;48.812;8.198;2023-09-18T11:28:04;2.22;;;0.93;;
82399;SDS011;72039;48.812;8.198;2023-09-18T11:30:36;4.25;;;0.90;;
82399;SDS011;72039;48.812;8.198;2023-09-18T11:33:15;1.70;;;0.82;;
82399;SDS011;72039;48.812;8.198;2023-09-18T11:35:55;2.88;;;1.10;;
82399;SDS011;72039;48.812;8.198;2023-09-18T11:38:21;2.83;;;0.90;;
82399;SDS011;72039;48.812;8.198;2023-09-18T11:40:48;2.50;;;1.35;;
82399;SDS011;72039;48.812;8.198;2023-09-18T11:43:28;2.67;;;0.90;;
82399;SDS011;72039;48.812;8.198;2023-09-18T11:46:03;3.15;;;0.90;;
82399;SDS011;72039;48.812;8.198;2023-09-18T11:48:29;1.98;;;0.80;;
82399;SDS011;72039;48.812;8.198;2023-09-18T11:51:01;3.97;;;1.35;;
82399;SDS011;72039;48.812;8.198;2023-09-18T11:53:32;3.42;;;1.00;;
82399;SDS011;72039;48.812;8.198;2023-09-18T11:56:02;4.53;;;1.00;;
82399;SDS011;72039;48.812;8.198;2023-09-18T11:58:28;4.05;;;0.80;;
82399;SDS011;72039;48.812;8.198;2023-09-18T12:00:53;1.40;;;0.90;;
82399;SDS011;72039;48.812;8.198;2023-09-18T12:03:23;2.17;;;0.80;;
82399;SDS011;72039;48.812;8.198;2023-09-18T12:08:22;6.03;;;1.23;;
82399;SDS011;72039;48.812;8.198;2023-09-18T12:10:52;1.83;;;0.90;;
82399;SDS011;72039;48.812;8.198;2023-09-18T12:13:21;2.30;;;0.95;;
82399;SDS011;72039;48.812;8.198;2023-09-18T12:15:58;2.25;;;1.02;;
82399;SDS011;72039;48.812;8.198;2023-09-18T12:18:25;1.88;;;0.80;;
82399;SDS011;72039;48.812;8.198;2023-09-18T12:20:54;2.55;;;1.00;;
82399;SDS011;72039;48.812;8.198;2023-09-18T12:23:21;2.65;;;0.80;;
82399;SDS011;72039;48.812;8.198;2023-09-18T12:25:48;3.40;;;1.50;;
82399;SDS011;72039;48.812;8.198;2023-09-18T12:28:16;5.90;;;0.98;;
82399;SDS011;72039;48.812;8.198;2023-09-18T12:30:42;1.88;;;0.82;;
82399;SDS011;72039;48.812;8.198;2023-09-18T12:33:13;0.95;;;0.70;;
82399;SDS011;72039;48.812;8.198;2023-09-18T12:35:41;1.95;;;0.70;;
82399;SDS011;72039;48.812;8.198;2023-09-18T12:38:15;2.00;;;0.90;;
82399;SDS011;72039;48.812;8.198;2023-09-18T12:40:43;4.72;;;0.82;;
82399;SDS011;72039;48.812;8.198;2023-09-18T12:43:10;2.55;;;0.80;;
82399;SDS011;72039;48.812;8.198;2023-09-18T12:45:36;2.45;;;1.00;;
82399;SDS011;72039;48.812;8.198;2023-09-18T12:48:03;3.45;;;0.90;;
82399;SDS011;72039;48.812;8.198;2023-09-18T12:50:30;1.55;;;0.90;;
82399;SDS011;72039;48.812;8.198;2023-09-18T12:53:08;2.10;;;1.10;;
82399;SDS011;72039;48.812;8.198;2023-09-18T12:55:33;1.67;;;0.98;;
82399;SDS011;72039;48.812;8.198;2023-09-18T12:58:00;2.95;;;1.45;;
82399;SDS011;72039;48.812;8.198;2023-09-18T13:00:30;1.95;;;0.90;;
82399;SDS011;72039;48.812;8.198;2023-09-18T13:02:56;3.45;;;0.90;;
82399;SDS011;72039;48.812;8.198;2023-09-18T13:05:22;4.30;;;0.90;;
82399;SDS011;72039;48.812;8.198;2023-09-18T13:07:52;1.42;;;0.95;;
82399;SDS011;72039;48.812;8.198;2023-09-18T13:10:19;3.25;;;1.52;;
82399;SDS011;72039;48.812;8.198;2023-09-18T13:12:50;5.18;;;1.15;;
82399;SDS011;72039;48.812;8.198;2023-09-18T13:17:54;3.85;;;1.00;;
82399;SDS011;72039;48.812;8.198;2023-09-18T13:20:24;1.55;;;1.13;;
82399;SDS011;72039;48.812;8.198;2023-09-18T13:22:57;3.20;;;1.20;;
82399;SDS011;72039;48.812;8.198;2023-09-18T13:28:08;3.22;;;1.00;;
82399;SDS011;72039;48.812;8.198;2023-09-18T13:30:35;4.07;;;0.90;;
82399;SDS011;72039;48.812;8.198;2023-09-18T13:33:05;4.57;;;1.00;;
82399;SDS011;72039;48.812;8.198;2023-09-18T13:35:33;2.45;;;1.25;;
82399;SDS011;72039;48.812;8.198;2023-09-18T13:38:06;2.50;;;1.20;;
82399;SDS011;72039;48.812;8.198;2023-09-18T13:40:33;2.75;;;1.08;;
82399;SDS011;72039;48.812;8.198;2023-09-18T13:43:01;4.25;;;1.20;;
82399;SDS011;72039;48.812;8.198;2023-09-18T13:45:40;3.25;;;0.90;;
82399;SDS011;72039;48.812;8.198;2023-09-18T13:48:06;3.28;;;1.23;;
82399;SDS011;72039;48.812;8.198;2023-09-18T13:50:32;2.53;;;1.30;;
82399;SDS011;72039;48.812;8.198;2023-09-18T13:52:58;3.85;;;1.00;;
82399;SDS011;72039;48.812;8.198;2023-09-18T13:55:25;2.35;;;1.00;;
82399;SDS011;72039;48.812;8.198;2023-09-18T13:57:52;2.63;;;1.08;;
82399;SDS011;72039;48.812;8.198;2023-09-18T14:00:21;2.92;;;1.10;;
82399;SDS011;72039;48.812;8.198;2023-09-18T14:02:47;3.70;;;1.10;;
82399;SDS011;72039;48.812;8.198;2023-09-18T14:05:13;1.33;;;1.00;;
82399;SDS011;72039;48.812;8.198;2023-09-18T14:07:39;2.03;;;0.90;;
82399;SDS011;72039;48.812;8.198;2023-09-18T14:10:12;3.40;;;1.10;;
82399;SDS011;72039;48.812;8.198;2023-09-18T14:12:38;1.75;;;0.90;;
82399;SDS011;72039;48.812;8.198;2023-09-18T14:15:07;1.80;;;0.85;;
82399;SDS011;72039;48.812;8.198;2023-09-18T14:17:34;1.27;;;1.00;;
82399;SDS011;72039;48.812;8.198;2023-09-18T14:20:00;4.45;;;1.08;;
82399;SDS011;72039;48.812;8.198;2023-09-18T14:22:26;2.42;;;1.48;;
82399;SDS011;72039;48.812;8.198;2023-09-18T14:24:52;2.47;;;1.00;;
82399;SDS011;72039;48.812;8.198;2023-09-18T14:27:17;5.20;;;1.23;;
82399;SDS011;72039;48.812;8.198;2023-09-18T14:29:43;3.35;;;1.00;;
82399;SDS011;72039;48.812;8.198;2023-09-18T14:32:08;1.88;;;0.82;;
82399;SDS011;72039;48.812;8.198;2023-09-18T14:34:34;2.95;;;0.90;;
82399;SDS011;72039;48.812;8.198;2023-09-18T14:37:06;2.45;;;0.80;;
82399;SDS011;72039;48.812;8.198;2023-09-18T14:39:32;2.55;;;1.00;;
82399;SDS011;72039;48.812;8.198;2023-09-18T14:41:58;4.75;;;0.90;;
82399;SDS011;72039;48.812;8.198;2023-09-18T14:44:24;3.95;;;1.13;;
82399;SDS011;72039;48.812;8.198;2023-09-18T14:46:51;5.85;;;0.98;;
82399;SDS011;72039;48.812;8.198;2023-09-18T14:49:17;2.25;;;0.90;;
82399;SDS011;72039;48.812;8.198;2023-09-18T14:51:43;1.35;;;0.85;;
82399;SDS011;72039;48.812;8.198;2023-09-18T14:54:09;2.15;;;0.80;;
82399;SDS011;72039;48.812;8.198;2023-09-18T14:59:05;2.50;;;1.10;;
82399;SDS011;72039;48.812;8.198;2023-09-18T15:01:32;2.20;;;0.70;;
82399;SDS011;72039;48.812;8.198;2023-09-18T15:03:58;2.33;;;1.20;;
82399;SDS011;72039;48.812;8.198;2023-09-18T15:06:27;5.30;;;1.10;;
82399;SDS011;72039;48.812;8.198;2023-09-18T15:08:54;1.63;;;1.00;;
82399;SDS011;72039;48.812;8.198;2023-09-18T15:11:19;2.08;;;0.80;;
82399;SDS011;72039;48.812;8.198;2023-09-18T15:13:45;3.10;;;1.00;;